sensor_id;sensor_type;location;lat;lon;timestamp;temperature;humidity
63017;DHT22;50274;45.640;11.756;2023-05-01T00:00:16;16.00;68.20
63017;DHT22;50274;45.640;11.756;2023-05-01T00:02:42;16.10;68.00
63017;DHT22;50274;45.640;11.756;2023-05-01T00:05:08;16.10;67.80
63017;DHT22;50274;45.640;11.756;2023-05-01T00:07:34;16.10;67.40
63017;DHT22;50274;45.640;11.756;2023-05-01T00:10:00;16.20;67.10
63017;DHT22;50274;45.640;11.756;2023-05-01T00:12:26;16.20;66.90
63017;DHT22;50274;45.640;11.756;2023-05-01T00:14:55;16.20;66.70
63017;DHT22;50274;45.640;11.756;2023-05-01T00:17:21;16.30;66.40
63017;DHT22;50274;45.640;11.756;2023-05-01T00:19:56;16.30;65.90
63017;DHT22;50274;45.640;11.756;2023-05-01T00:22:22;16.30;65.70
63017;DHT22;50274;45.640;11.756;2023-05-01T00:24:47;16.30;65.50
63017;DHT22;50274;45.640;11.756;2023-05-01T00:27:14;16.30;65.40
63017;DHT22;50274;45.640;11.756;2023-05-01T00:29:40;16.30;65.10
63017;DHT22;50274;45.640;11.756;2023-05-01T00:32:06;16.40;64.70
63017;DHT22;50274;45.640;11.756;2023-05-01T00:34:32;16.40;64.70
63017;DHT22;50274;45.640;11.756;2023-05-01T00:36:59;16.40;64.10
63017;DHT22;50274;45.640;11.756;2023-05-01T00:39:24;16.40;64.10
63017;DHT22;50274;45.640;11.756;2023-05-01T00:41:50;16.30;63.90
63017;DHT22;50274;45.640;11.756;2023-05-01T00:44:16;16.40;63.80
63017;DHT22;50274;45.640;11.756;2023-05-01T00:46:42;16.30;64.10
63017;DHT22;50274;45.640;11.756;2023-05-01T00:49:08;16.40;64.10
63017;DHT22;50274;45.640;11.756;2023-05-01T00:51:35;16.30;64.20
63017;DHT22;50274;45.640;11.756;2023-05-01T00:54:02;16.30;64.10
63017;DHT22;50274;45.640;11.756;2023-05-01T00:56:31;16.30;64.20
63017;DHT22;50274;45.640;11.756;2023-05-01T00:58:58;16.30;64.30
63017;DHT22;50274;45.640;11.756;2023-05-01T01:01:24;16.30;64.40
63017;DHT22;50274;45.640;11.756;2023-05-01T01:03:50;16.30;64.10
63017;DHT22;50274;45.640;11.756;2023-05-01T01:06:39;16.30;63.80
63017;DHT22;50274;45.640;11.756;2023-05-01T01:14:37;16.30;63.00
63017;DHT22;50274;45.640;11.756;2023-05-01T01:22:18;16.20;62.90
63017;DHT22;50274;45.640;11.756;2023-05-01T01:30:33;16.20;63.10
63017;DHT22;50274;45.640;11.756;2023-05-01T01:35:56;16.20;62.60
63017;DHT22;50274;45.640;11.756;2023-05-01T01:38:36;16.20;62.60
63017;DHT22;50274;45.640;11.756;2023-05-01T01:41:09;16.20;62.40
63017;DHT22;50274;45.640;11.756;2023-05-01T01:43:46;16.20;62.60
63017;DHT22;50274;45.640;11.756;2023-05-01T01:46:16;16.20;62.40
63017;DHT22;50274;45.640;11.756;2023-05-01T01:48:45;16.20;62.20
63017;DHT22;50274;45.640;11.756;2023-05-01T01:51:15;16.20;62.00
63017;DHT22;50274;45.640;11.756;2023-05-01T01:53:45;16.20;61.70
63017;DHT22;50274;45.640;11.756;2023-05-01T01:56:16;16.20;61.60
63017;DHT22;50274;45.640;11.756;2023-05-01T01:58:43;16.20;61.40
63017;DHT22;50274;45.640;11.756;2023-05-01T02:01:11;16.20;61.00
63017;DHT22;50274;45.640;11.756;2023-05-01T02:03:39;16.20;60.70
63017;DHT22;50274;45.640;11.756;2023-05-01T02:06:06;16.20;60.10
63017;DHT22;50274;45.640;11.756;2023-05-01T02:08:34;16.20;59.90
63017;DHT22;50274;45.640;11.756;2023-05-01T02:11:01;16.20;59.50
63017;DHT22;50274;45.640;11.756;2023-05-01T02:13:29;16.20;58.90
63017;DHT22;50274;45.640;11.756;2023-05-01T02:15:58;16.20;59.30
63017;DHT22;50274;45.640;11.756;2023-05-01T02:18:28;16.10;59.00
63017;DHT22;50274;45.640;11.756;2023-05-01T02:20:56;16.10;58.60
63017;DHT22;50274;45.640;11.756;2023-05-01T02:23:23;16.10;58.80
63017;DHT22;50274;45.640;11.756;2023-05-01T02:25:52;16.10;58.10
63017;DHT22;50274;45.640;11.756;2023-05-01T02:28:22;16.10;57.80
63017;DHT22;50274;45.640;11.756;2023-05-01T02:30:49;16.10;57.60
63017;DHT22;50274;45.640;11.756;2023-05-01T02:33:14;16.10;58.00
63017;DHT22;50274;45.640;11.756;2023-05-01T02:35:42;16.00;57.80
63017;DHT22;50274;45.640;11.756;2023-05-01T02:38:10;16.00;57.20
63017;DHT22;50274;45.640;11.756;2023-05-01T02:40:38;16.00;57.20
63017;DHT22;50274;45.640;11.756;2023-05-01T02:43:08;16.00;57.20
63017;DHT22;50274;45.640;11.756;2023-05-01T02:45:39;16.00;56.90
63017;DHT22;50274;45.640;11.756;2023-05-01T02:48:07;16.00;56.60
63017;DHT22;50274;45.640;11.756;2023-05-01T02:50:35;16.00;56.50
63017;DHT22;50274;45.640;11.756;2023-05-01T02:53:02;15.90;56.40
63017;DHT22;50274;45.640;11.756;2023-05-01T02:55:28;15.90;56.60
63017;DHT22;50274;45.640;11.756;2023-05-01T02:57:57;15.90;56.70
63017;DHT22;50274;45.640;11.756;2023-05-01T03:00:24;15.80;56.30
63017;DHT22;50274;45.640;11.756;2023-05-01T03:02:50;15.80;56.40
63017;DHT22;50274;45.640;11.756;2023-05-01T03:05:16;15.70;56.90
63017;DHT22;50274;45.640;11.756;2023-05-01T03:07:42;15.70;57.00
63017;DHT22;50274;45.640;11.756;2023-05-01T03:10:08;15.70;56.80
63017;DHT22;50274;45.640;11.756;2023-05-01T03:12:34;15.70;57.20
63017;DHT22;50274;45.640;11.756;2023-05-01T03:15:00;15.70;56.80
63017;DHT22;50274;45.640;11.756;2023-05-01T03:17:25;15.70;56.70
63017;DHT22;50274;45.640;11.756;2023-05-01T03:19:52;15.70;56.90
63017;DHT22;50274;45.640;11.756;2023-05-01T03:22:17;15.70;57.10
63017;DHT22;50274;45.640;11.756;2023-05-01T03:24:43;15.70;57.00
63017;DHT22;50274;45.640;11.756;2023-05-01T03:27:09;15.60;57.40
63017;DHT22;50274;45.640;11.756;2023-05-01T03:29:36;15.60;57.70
63017;DHT22;50274;45.640;11.756;2023-05-01T03:32:05;15.60;57.90
63017;DHT22;50274;45.640;11.756;2023-05-01T03:34:31;15.60;58.10
63017;DHT22;50274;45.640;11.756;2023-05-01T03:36:57;15.60;58.10
63017;DHT22;50274;45.640;11.756;2023-05-01T03:39:23;15.50;58.40
63017;DHT22;50274;45.640;11.756;2023-05-01T03:41:49;15.50;58.60
63017;DHT22;50274;45.640;11.756;2023-05-01T03:44:15;15.50;58.80
63017;DHT22;50274;45.640;11.756;2023-05-01T03:46:40;15.40;59.10
63017;DHT22;50274;45.640;11.756;2023-05-01T03:49:06;15.40;59.20
63017;DHT22;50274;45.640;11.756;2023-05-01T03:51:32;15.40;59.20
63017;DHT22;50274;45.640;11.756;2023-05-01T03:53:58;15.40;59.40
63017;DHT22;50274;45.640;11.756;2023-05-01T03:56:24;15.40;59.50
63017;DHT22;50274;45.640;11.756;2023-05-01T03:58:51;15.30;59.40
63017;DHT22;50274;45.640;11.756;2023-05-01T04:01:17;15.30;59.40
63017;DHT22;50274;45.640;11.756;2023-05-01T04:03:43;15.30;59.00
63017;DHT22;50274;45.640;11.756;2023-05-01T04:06:10;15.30;58.90
63017;DHT22;50274;45.640;11.756;2023-05-01T04:08:37;15.30;58.50
63017;DHT22;50274;45.640;11.756;2023-05-01T04:11:03;15.30;58.30
63017;DHT22;50274;45.640;11.756;2023-05-01T04:13:29;15.30;58.20
63017;DHT22;50274;45.640;11.756;2023-05-01T04:15:55;15.30;58.10
63017;DHT22;50274;45.640;11.756;2023-05-01T04:18:23;15.20;57.80
63017;DHT22;50274;45.640;11.756;2023-05-01T04:20:50;15.20;57.80
63017;DHT22;50274;45.640;11.756;2023-05-01T04:23:16;15.20;58.00
63017;DHT22;50274;45.640;11.756;2023-05-01T04:25:41;15.20;58.20
63017;DHT22;50274;45.640;11.756;2023-05-01T04:28:09;15.10;58.20
63017;DHT22;50274;45.640;11.756;2023-05-01T04:30:36;15.10;58.40
63017;DHT22;50274;45.640;11.756;2023-05-01T04:33:02;15.10;58.70
63017;DHT22;50274;45.640;11.756;2023-05-01T04:35:30;15.10;59.00
63017;DHT22;50274;45.640;11.756;2023-05-01T04:37:59;15.10;59.10
63017;DHT22;50274;45.640;11.756;2023-05-01T04:40:24;15.10;59.20
63017;DHT22;50274;45.640;11.756;2023-05-01T04:42:50;15.10;59.20
63017;DHT22;50274;45.640;11.756;2023-05-01T04:45:16;15.10;59.30
63017;DHT22;50274;45.640;11.756;2023-05-01T04:47:44;15.10;59.40
63017;DHT22;50274;45.640;11.756;2023-05-01T04:50:10;15.10;59.40
63017;DHT22;50274;45.640;11.756;2023-05-01T04:52:36;15.10;59.50
63017;DHT22;50274;45.640;11.756;2023-05-01T04:55:02;15.10;59.60
63017;DHT22;50274;45.640;11.756;2023-05-01T04:57:28;15.10;59.70
63017;DHT22;50274;45.640;11.756;2023-05-01T04:59:54;15.10;59.70
63017;DHT22;50274;45.640;11.756;2023-05-01T05:02:20;15.10;59.60
63017;DHT22;50274;45.640;11.756;2023-05-01T05:04:46;15.10;59.40
63017;DHT22;50274;45.640;11.756;2023-05-01T05:07:12;15.10;59.40
63017;DHT22;50274;45.640;11.756;2023-05-01T05:09:37;15.20;59.40
63017;DHT22;50274;45.640;11.756;2023-05-01T05:12:03;15.10;59.40
63017;DHT22;50274;45.640;11.756;2023-05-01T05:14:30;15.20;59.30
63017;DHT22;50274;45.640;11.756;2023-05-01T05:16:56;15.20;59.30
63017;DHT22;50274;45.640;11.756;2023-05-01T05:19:22;15.30;59.30
63017;DHT22;50274;45.640;11.756;2023-05-01T05:21:47;15.30;59.40
63017;DHT22;50274;45.640;11.756;2023-05-01T05:24:13;15.30;59.50
63017;DHT22;50274;45.640;11.756;2023-05-01T05:26:39;15.30;59.70
63017;DHT22;50274;45.640;11.756;2023-05-01T05:29:05;15.30;59.70
63017;DHT22;50274;45.640;11.756;2023-05-01T05:31:31;15.40;59.70
63017;DHT22;50274;45.640;11.756;2023-05-01T05:33:57;15.40;59.70
63017;DHT22;50274;45.640;11.756;2023-05-01T05:36:23;15.40;59.60
63017;DHT22;50274;45.640;11.756;2023-05-01T05:38:52;15.40;59.70
63017;DHT22;50274;45.640;11.756;2023-05-01T05:41:18;15.40;59.70
63017;DHT22;50274;45.640;11.756;2023-05-01T05:43:47;15.50;59.70
63017;DHT22;50274;45.640;11.756;2023-05-01T05:46:13;15.50;59.70
63017;DHT22;50274;45.640;11.756;2023-05-01T05:48:42;15.50;59.70
63017;DHT22;50274;45.640;11.756;2023-05-01T05:51:08;15.60;59.70
63017;DHT22;50274;45.640;11.756;2023-05-01T05:53:45;15.60;59.70
63017;DHT22;50274;45.640;11.756;2023-05-01T05:56:17;15.70;59.60
63017;DHT22;50274;45.640;11.756;2023-05-01T05:58:43;15.70;59.50
63017;DHT22;50274;45.640;11.756;2023-05-01T06:01:12;15.60;59.50
63017;DHT22;50274;45.640;11.756;2023-05-01T06:03:39;15.70;59.50
63017;DHT22;50274;45.640;11.756;2023-05-01T06:06:05;15.70;59.40
63017;DHT22;50274;45.640;11.756;2023-05-01T06:08:31;15.70;59.50
63017;DHT22;50274;45.640;11.756;2023-05-01T06:10:57;15.70;59.60
63017;DHT22;50274;45.640;11.756;2023-05-01T06:13:23;15.70;59.50
63017;DHT22;50274;45.640;11.756;2023-05-01T06:15:49;15.70;59.50
63017;DHT22;50274;45.640;11.756;2023-05-01T06:18:16;15.70;58.90
63017;DHT22;50274;45.640;11.756;2023-05-01T06:20:42;15.70;59.00
63017;DHT22;50274;45.640;11.756;2023-05-01T06:23:08;15.70;58.90
63017;DHT22;50274;45.640;11.756;2023-05-01T06:25:35;15.70;59.00
63017;DHT22;50274;45.640;11.756;2023-05-01T06:28:02;15.80;58.70
63017;DHT22;50274;45.640;11.756;2023-05-01T06:30:28;15.80;58.70
63017;DHT22;50274;45.640;11.756;2023-05-01T06:32:55;15.80;58.80
63017;DHT22;50274;45.640;11.756;2023-05-01T06:35:21;15.80;58.60
63017;DHT22;50274;45.640;11.756;2023-05-01T06:37:48;15.90;58.50
63017;DHT22;50274;45.640;11.756;2023-05-01T06:40:14;15.90;58.50
63017;DHT22;50274;45.640;11.756;2023-05-01T06:42:40;15.90;58.20
63017;DHT22;50274;45.640;11.756;2023-05-01T06:45:07;15.90;58.40
63017;DHT22;50274;45.640;11.756;2023-05-01T06:47:34;16.00;58.50
63017;DHT22;50274;45.640;11.756;2023-05-01T06:50:00;16.00;58.50
63017;DHT22;50274;45.640;11.756;2023-05-01T06:52:27;16.00;58.50
63017;DHT22;50274;45.640;11.756;2023-05-01T06:54:53;16.00;58.30
63017;DHT22;50274;45.640;11.756;2023-05-01T06:57:19;16.00;58.10
63017;DHT22;50274;45.640;11.756;2023-05-01T06:59:46;16.00;58.10
63017;DHT22;50274;45.640;11.756;2023-05-01T07:02:12;16.00;58.10
63017;DHT22;50274;45.640;11.756;2023-05-01T07:04:38;16.00;58.00
63017;DHT22;50274;45.640;11.756;2023-05-01T07:07:05;16.10;58.00
63017;DHT22;50274;45.640;11.756;2023-05-01T07:09:31;16.10;57.80
63017;DHT22;50274;45.640;11.756;2023-05-01T07:11:57;16.10;57.60
63017;DHT22;50274;45.640;11.756;2023-05-01T07:14:24;16.20;57.10
63017;DHT22;50274;45.640;11.756;2023-05-01T07:16:50;16.20;57.00
63017;DHT22;50274;45.640;11.756;2023-05-01T07:19:16;16.30;57.00
63017;DHT22;50274;45.640;11.756;2023-05-01T07:21:41;16.30;55.80
63017;DHT22;50274;45.640;11.756;2023-05-01T07:24:07;16.30;55.40
63017;DHT22;50274;45.640;11.756;2023-05-01T07:26:34;16.40;55.00
63017;DHT22;50274;45.640;11.756;2023-05-01T07:29:00;16.50;54.50
63017;DHT22;50274;45.640;11.756;2023-05-01T07:31:25;16.50;53.90
63017;DHT22;50274;45.640;11.756;2023-05-01T07:33:51;16.50;53.80
63017;DHT22;50274;45.640;11.756;2023-05-01T07:36:17;16.50;54.10
63017;DHT22;50274;45.640;11.756;2023-05-01T07:38:45;16.50;54.10
63017;DHT22;50274;45.640;11.756;2023-05-01T07:41:10;16.60;53.70
63017;DHT22;50274;45.640;11.756;2023-05-01T07:43:36;16.60;53.20
63017;DHT22;50274;45.640;11.756;2023-05-01T07:46:02;16.60;53.20
63017;DHT22;50274;45.640;11.756;2023-05-01T07:48:28;16.60;52.60
63017;DHT22;50274;45.640;11.756;2023-05-01T07:50:54;16.60;52.10
63017;DHT22;50274;45.640;11.756;2023-05-01T07:53:21;16.60;52.20
63017;DHT22;50274;45.640;11.756;2023-05-01T07:55:47;16.70;52.10
63017;DHT22;50274;45.640;11.756;2023-05-01T07:58:16;16.70;52.30
63017;DHT22;50274;45.640;11.756;2023-05-01T08:00:45;16.70;52.30
63017;DHT22;50274;45.640;11.756;2023-05-01T08:03:11;16.80;52.40
63017;DHT22;50274;45.640;11.756;2023-05-01T08:05:41;16.80;51.90
63017;DHT22;50274;45.640;11.756;2023-05-01T08:08:07;16.90;51.90
63017;DHT22;50274;45.640;11.756;2023-05-01T08:10:33;17.00;51.50
63017;DHT22;50274;45.640;11.756;2023-05-01T08:12:59;17.00;51.90
63017;DHT22;50274;45.640;11.756;2023-05-01T08:15:25;17.00;51.70
63017;DHT22;50274;45.640;11.756;2023-05-01T08:17:52;17.10;51.70
63017;DHT22;50274;45.640;11.756;2023-05-01T08:20:18;17.20;51.40
63017;DHT22;50274;45.640;11.756;2023-05-01T08:22:44;17.30;51.40
63017;DHT22;50274;45.640;11.756;2023-05-01T08:25:10;17.40;51.40
63017;DHT22;50274;45.640;11.756;2023-05-01T08:27:37;17.50;51.40
63017;DHT22;50274;45.640;11.756;2023-05-01T08:30:03;17.60;51.50
63017;DHT22;50274;45.640;11.756;2023-05-01T08:32:29;17.70;51.70
63017;DHT22;50274;45.640;11.756;2023-05-01T08:34:55;17.80;51.30
63017;DHT22;50274;45.640;11.756;2023-05-01T08:37:21;17.90;51.30
63017;DHT22;50274;45.640;11.756;2023-05-01T08:39:46;18.00;51.20
63017;DHT22;50274;45.640;11.756;2023-05-01T08:42:12;18.10;50.80
63017;DHT22;50274;45.640;11.756;2023-05-01T08:44:42;18.20;50.80
63017;DHT22;50274;45.640;11.756;2023-05-01T08:47:15;18.30;50.20
63017;DHT22;50274;45.640;11.756;2023-05-01T08:49:42;18.40;49.70
63017;DHT22;50274;45.640;11.756;2023-05-01T08:52:13;18.50;48.50
63017;DHT22;50274;45.640;11.756;2023-05-01T08:54:44;18.60;48.70
63017;DHT22;50274;45.640;11.756;2023-05-01T08:57:11;18.70;48.70
63017;DHT22;50274;45.640;11.756;2023-05-01T08:59:38;18.80;48.20
63017;DHT22;50274;45.640;11.756;2023-05-01T09:02:07;18.90;46.60
63017;DHT22;50274;45.640;11.756;2023-05-01T09:04:39;19.00;46.40
63017;DHT22;50274;45.640;11.756;2023-05-01T09:07:05;19.00;46.50
63017;DHT22;50274;45.640;11.756;2023-05-01T09:09:31;19.00;47.00
63017;DHT22;50274;45.640;11.756;2023-05-01T09:12:21;19.10;47.70
63017;DHT22;50274;45.640;11.756;2023-05-01T09:14:51;19.10;47.20
63017;DHT22;50274;45.640;11.756;2023-05-01T09:17:19;19.20;46.60
63017;DHT22;50274;45.640;11.756;2023-05-01T09:19:47;19.30;45.80
63017;DHT22;50274;45.640;11.756;2023-05-01T09:22:13;19.50;45.40
63017;DHT22;50274;45.640;11.756;2023-05-01T09:24:39;19.70;46.00
63017;DHT22;50274;45.640;11.756;2023-05-01T09:27:06;19.80;46.10
63017;DHT22;50274;45.640;11.756;2023-05-01T09:29:45;20.10;46.00
63017;DHT22;50274;45.640;11.756;2023-05-01T09:32:16;20.30;46.60
63017;DHT22;50274;45.640;11.756;2023-05-01T09:34:49;20.40;44.30
63017;DHT22;50274;45.640;11.756;2023-05-01T09:37:33;20.50;43.70
63017;DHT22;50274;45.640;11.756;2023-05-01T09:42:36;20.50;42.10
63017;DHT22;50274;45.640;11.756;2023-05-01T09:45:13;20.50;43.20
63017;DHT22;50274;45.640;11.756;2023-05-01T09:47:49;20.40;43.10
63017;DHT22;50274;45.640;11.756;2023-05-01T09:50:31;20.50;42.40
63017;DHT22;50274;45.640;11.756;2023-05-01T09:52:59;20.50;41.00
63017;DHT22;50274;45.640;11.756;2023-05-01T09:55:26;20.50;41.50
63017;DHT22;50274;45.640;11.756;2023-05-01T09:57:52;20.60;41.80
63017;DHT22;50274;45.640;11.756;2023-05-01T10:00:18;20.60;40.30
63017;DHT22;50274;45.640;11.756;2023-05-01T10:02:47;20.60;40.10
63017;DHT22;50274;45.640;11.756;2023-05-01T10:05:14;20.50;40.20
63017;DHT22;50274;45.640;11.756;2023-05-01T10:08:00;20.50;39.10
63017;DHT22;50274;45.640;11.756;2023-05-01T10:10:26;20.40;39.80
63017;DHT22;50274;45.640;11.756;2023-05-01T10:12:52;20.40;40.50
63017;DHT22;50274;45.640;11.756;2023-05-01T10:15:19;20.40;40.60
63017;DHT22;50274;45.640;11.756;2023-05-01T10:17:46;20.40;39.80
63017;DHT22;50274;45.640;11.756;2023-05-01T10:20:13;20.50;39.80
63017;DHT22;50274;45.640;11.756;2023-05-01T10:22:40;20.60;39.30
63017;DHT22;50274;45.640;11.756;2023-05-01T10:25:07;20.60;39.40
63017;DHT22;50274;45.640;11.756;2023-05-01T10:27:34;20.80;40.10
63017;DHT22;50274;45.640;11.756;2023-05-01T10:30:03;20.90;39.00
63017;DHT22;50274;45.640;11.756;2023-05-01T10:32:32;21.10;39.10
63017;DHT22;50274;45.640;11.756;2023-05-01T10:35:06;21.20;37.80
63017;DHT22;50274;45.640;11.756;2023-05-01T10:37:37;21.40;39.00
63017;DHT22;50274;45.640;11.756;2023-05-01T10:45:48;21.70;37.10
63017;DHT22;50274;45.640;11.756;2023-05-01T10:53:41;21.80;36.30
63017;DHT22;50274;45.640;11.756;2023-05-01T10:56:40;21.70;36.50
63017;DHT22;50274;45.640;11.756;2023-05-01T10:59:07;21.60;36.70
63017;DHT22;50274;45.640;11.756;2023-05-01T11:12:08;21.70;36.80
63017;DHT22;50274;45.640;11.756;2023-05-01T11:22:58;21.80;36.90
63017;DHT22;50274;45.640;11.756;2023-05-01T11:25:28;22.00;37.40
63017;DHT22;50274;45.640;11.756;2023-05-01T11:28:04;22.30;37.50
63017;DHT22;50274;45.640;11.756;2023-05-01T11:30:40;22.40;36.40
63017;DHT22;50274;45.640;11.756;2023-05-01T11:33:07;22.40;35.60
63017;DHT22;50274;45.640;11.756;2023-05-01T11:35:33;22.30;35.20
63017;DHT22;50274;45.640;11.756;2023-05-01T11:37:58;22.30;34.90
63017;DHT22;50274;45.640;11.756;2023-05-01T11:40:31;22.20;35.20
63017;DHT22;50274;45.640;11.756;2023-05-01T11:43:05;22.20;35.50
63017;DHT22;50274;45.640;11.756;2023-05-01T11:45:32;22.20;35.80
63017;DHT22;50274;45.640;11.756;2023-05-01T11:47:59;22.10;35.00
63017;DHT22;50274;45.640;11.756;2023-05-01T11:50:32;22.00;34.90
63017;DHT22;50274;45.640;11.756;2023-05-01T11:53:00;22.00;35.20
63017;DHT22;50274;45.640;11.756;2023-05-01T11:55:33;21.90;34.70
63017;DHT22;50274;45.640;11.756;2023-05-01T11:58:00;22.00;36.10
63017;DHT22;50274;45.640;11.756;2023-05-01T12:00:27;22.00;36.00
63017;DHT22;50274;45.640;11.756;2023-05-01T12:03:02;22.00;36.60
63017;DHT22;50274;45.640;11.756;2023-05-01T12:05:30;22.00;36.50
63017;DHT22;50274;45.640;11.756;2023-05-01T12:10:47;21.90;37.60
63017;DHT22;50274;45.640;11.756;2023-05-01T12:13:14;21.80;37.20
63017;DHT22;50274;45.640;11.756;2023-05-01T12:15:51;21.80;37.60
63017;DHT22;50274;45.640;11.756;2023-05-01T12:18:17;21.70;37.50
63017;DHT22;50274;45.640;11.756;2023-05-01T12:20:49;21.70;37.60
63017;DHT22;50274;45.640;11.756;2023-05-01T12:23:18;21.60;38.00
63017;DHT22;50274;45.640;11.756;2023-05-01T12:25:45;21.60;38.40
63017;DHT22;50274;45.640;11.756;2023-05-01T12:28:15;21.60;38.10
63017;DHT22;50274;45.640;11.756;2023-05-01T12:30:43;21.60;37.30
63017;DHT22;50274;45.640;11.756;2023-05-01T12:33:17;21.40;37.80
63017;DHT22;50274;45.640;11.756;2023-05-01T12:35:45;21.40;38.30
63017;DHT22;50274;45.640;11.756;2023-05-01T12:38:16;21.30;38.40
63017;DHT22;50274;45.640;11.756;2023-05-01T12:40:56;21.30;38.10
63017;DHT22;50274;45.640;11.756;2023-05-01T12:43:36;21.20;38.00
63017;DHT22;50274;45.640;11.756;2023-05-01T12:46:05;21.10;38.40
63017;DHT22;50274;45.640;11.756;2023-05-01T12:48:45;21.10;38.90
63017;DHT22;50274;45.640;11.756;2023-05-01T12:51:20;21.10;39.80
63017;DHT22;50274;45.640;11.756;2023-05-01T12:53:46;21.10;40.10
63017;DHT22;50274;45.640;11.756;2023-05-01T12:56:23;21.00;40.30
63017;DHT22;50274;45.640;11.756;2023-05-01T12:58:50;21.00;40.50
63017;DHT22;50274;45.640;11.756;2023-05-01T13:01:25;20.90;40.90
63017;DHT22;50274;45.640;11.756;2023-05-01T13:03:52;20.80;41.30
63017;DHT22;50274;45.640;11.756;2023-05-01T13:06:19;20.80;41.70
63017;DHT22;50274;45.640;11.756;2023-05-01T13:08:45;20.80;42.40
63017;DHT22;50274;45.640;11.756;2023-05-01T13:11:15;20.70;42.50
63017;DHT22;50274;45.640;11.756;2023-05-01T13:13:45;20.70;42.40
63017;DHT22;50274;45.640;11.756;2023-05-01T13:16:15;20.60;42.10
63017;DHT22;50274;45.640;11.756;2023-05-01T13:18:51;20.50;42.10
63017;DHT22;50274;45.640;11.756;2023-05-01T13:21:20;20.40;42.30
63017;DHT22;50274;45.640;11.756;2023-05-01T13:23:57;20.30;42.20
63017;DHT22;50274;45.640;11.756;2023-05-01T13:26:33;20.20;42.70
63017;DHT22;50274;45.640;11.756;2023-05-01T13:29:02;20.10;43.20
63017;DHT22;50274;45.640;11.756;2023-05-01T13:31:29;20.20;43.50
63017;DHT22;50274;45.640;11.756;2023-05-01T13:33:57;20.00;44.30
63017;DHT22;50274;45.640;11.756;2023-05-01T13:36:23;19.80;45.70
63017;DHT22;50274;45.640;11.756;2023-05-01T13:38:50;19.70;47.40
63017;DHT22;50274;45.640;11.756;2023-05-01T13:41:23;19.60;48.30
63017;DHT22;50274;45.640;11.756;2023-05-01T13:43:51;19.50;48.40
63017;DHT22;50274;45.640;11.756;2023-05-01T13:46:19;19.40;48.60
63017;DHT22;50274;45.640;11.756;2023-05-01T13:48:46;19.30;48.70
63017;DHT22;50274;45.640;11.756;2023-05-01T13:51:13;19.30;48.90
63017;DHT22;50274;45.640;11.756;2023-05-01T13:53:41;19.30;49.60
63017;DHT22;50274;45.640;11.756;2023-05-01T13:56:10;19.30;49.30
63017;DHT22;50274;45.640;11.756;2023-05-01T13:58:38;19.30;49.70
63017;DHT22;50274;45.640;11.756;2023-05-01T14:01:16;19.20;49.60
63017;DHT22;50274;45.640;11.756;2023-05-01T14:03:43;19.10;49.60
63017;DHT22;50274;45.640;11.756;2023-05-01T14:06:16;19.10;49.80
63017;DHT22;50274;45.640;11.756;2023-05-01T14:08:43;19.10;49.80
63017;DHT22;50274;45.640;11.756;2023-05-01T14:11:10;19.10;49.70
63017;DHT22;50274;45.640;11.756;2023-05-01T14:13:40;19.00;49.80
63017;DHT22;50274;45.640;11.756;2023-05-01T14:16:07;19.10;49.50
63017;DHT22;50274;45.640;11.756;2023-05-01T14:18:43;19.10;49.70
63017;DHT22;50274;45.640;11.756;2023-05-01T14:21:10;19.00;49.90
63017;DHT22;50274;45.640;11.756;2023-05-01T14:23:36;19.10;50.10
63017;DHT22;50274;45.640;11.756;2023-05-01T14:26:03;19.10;50.70
63017;DHT22;50274;45.640;11.756;2023-05-01T14:28:30;19.00;50.80
63017;DHT22;50274;45.640;11.756;2023-05-01T14:30:56;19.00;50.70
63017;DHT22;50274;45.640;11.756;2023-05-01T14:33:22;19.00;50.60
63017;DHT22;50274;45.640;11.756;2023-05-01T14:35:49;19.00;50.50
63017;DHT22;50274;45.640;11.756;2023-05-01T14:38:16;19.10;50.30
63017;DHT22;50274;45.640;11.756;2023-05-01T14:40:43;19.10;50.00
63017;DHT22;50274;45.640;11.756;2023-05-01T14:43:15;19.10;49.80
63017;DHT22;50274;45.640;11.756;2023-05-01T14:45:41;19.20;49.20
63017;DHT22;50274;45.640;11.756;2023-05-01T14:48:09;19.30;49.30
63017;DHT22;50274;45.640;11.756;2023-05-01T14:50:36;19.30;49.40
63017;DHT22;50274;45.640;11.756;2023-05-01T14:53:03;19.30;49.40
63017;DHT22;50274;45.640;11.756;2023-05-01T14:55:30;19.20;49.50
63017;DHT22;50274;45.640;11.756;2023-05-01T14:57:59;19.30;49.60
63017;DHT22;50274;45.640;11.756;2023-05-01T15:00:26;19.20;49.50
63017;DHT22;50274;45.640;11.756;2023-05-01T15:03:09;19.20;49.50
63017;DHT22;50274;45.640;11.756;2023-05-01T15:05:49;19.10;49.50
63017;DHT22;50274;45.640;11.756;2023-05-01T15:08:16;19.10;49.80
63017;DHT22;50274;45.640;11.756;2023-05-01T15:10:42;19.10;49.90
63017;DHT22;50274;45.640;11.756;2023-05-01T15:13:09;19.10;50.20
63017;DHT22;50274;45.640;11.756;2023-05-01T15:15:35;19.00;50.30
63017;DHT22;50274;45.640;11.756;2023-05-01T15:18:02;19.00;50.50
63017;DHT22;50274;45.640;11.756;2023-05-01T15:20:28;19.00;50.60
63017;DHT22;50274;45.640;11.756;2023-05-01T15:22:55;19.00;50.60
63017;DHT22;50274;45.640;11.756;2023-05-01T15:25:20;18.90;50.70
63017;DHT22;50274;45.640;11.756;2023-05-01T15:27:46;19.00;50.80
63017;DHT22;50274;45.640;11.756;2023-05-01T15:30:14;19.00;50.70
63017;DHT22;50274;45.640;11.756;2023-05-01T15:32:40;19.00;50.70
63017;DHT22;50274;45.640;11.756;2023-05-01T15:35:07;19.00;50.80
63017;DHT22;50274;45.640;11.756;2023-05-01T15:37:33;18.90;50.80
63017;DHT22;50274;45.640;11.756;2023-05-01T15:39:59;18.90;50.90
63017;DHT22;50274;45.640;11.756;2023-05-01T15:42:25;18.90;51.00
63017;DHT22;50274;45.640;11.756;2023-05-01T15:44:51;18.80;51.30
63017;DHT22;50274;45.640;11.756;2023-05-01T15:47:17;18.80;51.40
63017;DHT22;50274;45.640;11.756;2023-05-01T15:49:43;18.80;51.30
63017;DHT22;50274;45.640;11.756;2023-05-01T15:52:11;18.70;51.50
63017;DHT22;50274;45.640;11.756;2023-05-01T15:54:37;18.70;52.00
63017;DHT22;50274;45.640;11.756;2023-05-01T15:57:02;18.60;53.20
63017;DHT22;50274;45.640;11.756;2023-05-01T15:59:28;18.60;53.50
63017;DHT22;50274;45.640;11.756;2023-05-01T16:01:55;18.50;53.50
63017;DHT22;50274;45.640;11.756;2023-05-01T16:04:21;18.40;54.00
63017;DHT22;50274;45.640;11.756;2023-05-01T16:06:47;18.40;54.70
63017;DHT22;50274;45.640;11.756;2023-05-01T16:09:13;18.40;55.10
63017;DHT22;50274;45.640;11.756;2023-05-01T16:11:39;18.40;55.30
63017;DHT22;50274;45.640;11.756;2023-05-01T16:14:08;18.40;55.70